Spring Lake Heights, New Jersey
Current Conditions -  °F | °C
As of 10:15 PM on Tuesday 25 Nov 2014 (Local Time) from KBLM Reporting Station
Clear Clear  
Wind Chill: 44°   Ceiling: Unl
Heat Index: 46°   Visibility: 10mi
Dew Point: 30°   Wind: 5mph
Humidity: 53%   Direction: 280°W
Pressure: 30.15"   Gusts: NA
Location:  40.1528°N, 74.0364°W
Report Text: KBLM 260315Z AUTO 28004KT 10SM CLR 08/M01 A3015 RMK AO1
Loading
Personal Weather Stations






























Interactive Weather Map New forecast layout! Learn more

10-Day Weather Forecast

Advertisements
Track Severe Weather on mobile